sensor_id;sensor_type;location;lat;lon;timestamp;temperature;humidity
52295;DHT22;38243;53.212;6.574;2022-10-22T00:00:48;18.60;99.90
52295;DHT22;38243;53.212;6.574;2022-10-22T00:03:13;18.60;99.90
52295;DHT22;38243;53.212;6.574;2022-10-22T00:05:39;18.60;99.90
52295;DHT22;38243;53.212;6.574;2022-10-22T00:08:05;18.60;99.90
52295;DHT22;38243;53.212;6.574;2022-10-22T00:10:30;18.60;99.90
52295;DHT22;38243;53.212;6.574;2022-10-22T00:12:56;18.60;99.90
52295;DHT22;38243;53.212;6.574;2022-10-22T00:15:22;18.60;99.90
52295;DHT22;38243;53.212;6.574;2022-10-22T00:17:47;18.60;99.90
52295;DHT22;38243;53.212;6.574;2022-10-22T00:20:14;18.60;99.90
52295;DHT22;38243;53.212;6.574;2022-10-22T00:22:40;18.60;99.90
52295;DHT22;38243;53.212;6.574;2022-10-22T00:25:06;18.60;99.90
52295;DHT22;38243;53.212;6.574;2022-10-22T00:27:31;18.60;99.90
52295;DHT22;38243;53.212;6.574;2022-10-22T00:29:57;18.60;99.90
52295;DHT22;38243;53.212;6.574;2022-10-22T00:32:23;18.60;99.90
52295;DHT22;38243;53.212;6.574;2022-10-22T00:34:48;18.60;99.90
52295;DHT22;38243;53.212;6.574;2022-10-22T00:37:14;18.60;99.90
52295;DHT22;38243;53.212;6.574;2022-10-22T00:39:40;18.60;99.90
52295;DHT22;38243;53.212;6.574;2022-10-22T00:42:05;18.60;99.90
52295;DHT22;38243;53.212;6.574;2022-10-22T00:47:27;18.60;99.90
52295;DHT22;38243;53.212;6.574;2022-10-22T00:49:55;18.50;99.90
52295;DHT22;38243;53.212;6.574;2022-10-22T00:52:22;18.50;99.90
52295;DHT22;38243;53.212;6.574;2022-10-22T00:54:48;18.60;99.90
52295;DHT22;38243;53.212;6.574;2022-10-22T00:57:15;18.60;99.90
52295;DHT22;38243;53.212;6.574;2022-10-22T00:59:42;18.50;99.90
52295;DHT22;38243;53.212;6.574;2022-10-22T01:02:07;18.60;99.90
52295;DHT22;38243;53.212;6.574;2022-10-22T01:04:33;18.50;99.90
52295;DHT22;38243;53.212;6.574;2022-10-22T01:06:59;18.50;99.90
52295;DHT22;38243;53.212;6.574;2022-10-22T01:15:07;18.60;99.90
52295;DHT22;38243;53.212;6.574;2022-10-22T01:18:14;18.50;99.90
52295;DHT22;38243;53.212;6.574;2022-10-22T01:21:01;18.60;99.90
52295;DHT22;38243;53.212;6.574;2022-10-22T01:26:20;18.50;99.90
52295;DHT22;38243;53.212;6.574;2022-10-22T01:31:23;18.50;99.90
52295;DHT22;38243;53.212;6.574;2022-10-22T01:33:52;18.50;99.90
52295;DHT22;38243;53.212;6.574;2022-10-22T01:36:19;18.60;99.90
52295;DHT22;38243;53.212;6.574;2022-10-22T01:38:46;18.50;99.90
52295;DHT22;38243;53.212;6.574;2022-10-22T01:41:12;18.50;99.90
52295;DHT22;38243;53.212;6.574;2022-10-22T01:43:38;18.50;99.90
52295;DHT22;38243;53.212;6.574;2022-10-22T01:46:05;18.50;99.90
52295;DHT22;38243;53.212;6.574;2022-10-22T02:00:06;18.50;99.90
52295;DHT22;38243;53.212;6.574;2022-10-22T02:05:37;18.50;99.90
52295;DHT22;38243;53.212;6.574;2022-10-22T02:08:08;18.50;99.90
52295;DHT22;38243;53.212;6.574;2022-10-22T02:10:41;18.50;99.90
52295;DHT22;38243;53.212;6.574;2022-10-22T02:13:10;18.50;99.90
52295;DHT22;38243;53.212;6.574;2022-10-22T02:15:37;18.50;99.90
52295;DHT22;38243;53.212;6.574;2022-10-22T02:18:05;18.50;99.90
52295;DHT22;38243;53.212;6.574;2022-10-22T02:20:35;18.50;99.90
52295;DHT22;38243;53.212;6.574;2022-10-22T02:23:02;18.50;99.90
52295;DHT22;38243;53.212;6.574;2022-10-22T02:25:34;18.50;99.90
52295;DHT22;38243;53.212;6.574;2022-10-22T02:28:55;18.50;99.90
52295;DHT22;38243;53.212;6.574;2022-10-22T02:31:11;18.50;99.90
52295;DHT22;38243;53.212;6.574;2022-10-22T02:33:41;18.50;99.90
52295;DHT22;38243;53.212;6.574;2022-10-22T02:36:10;18.50;99.90
52295;DHT22;38243;53.212;6.574;2022-10-22T02:38:37;18.50;99.90
52295;DHT22;38243;53.212;6.574;2022-10-22T02:41:04;18.50;99.90
52295;DHT22;38243;53.212;6.574;2022-10-22T02:43:41;18.50;99.90
52295;DHT22;38243;53.212;6.574;2022-10-22T02:46:08;18.50;99.90
52295;DHT22;38243;53.212;6.574;2022-10-22T02:48:34;18.50;99.90
52295;DHT22;38243;53.212;6.574;2022-10-22T02:51:00;18.50;99.90
52295;DHT22;38243;53.212;6.574;2022-10-22T02:53:25;18.50;99.90
52295;DHT22;38243;53.212;6.574;2022-10-22T02:55:51;18.50;99.90
52295;DHT22;38243;53.212;6.574;2022-10-22T02:58:16;18.50;99.90
52295;DHT22;38243;53.212;6.574;2022-10-22T03:00:42;18.50;99.90
52295;DHT22;38243;53.212;6.574;2022-10-22T03:03:08;18.50;99.90
52295;DHT22;38243;53.212;6.574;2022-10-22T03:05:33;18.50;99.90
52295;DHT22;38243;53.212;6.574;2022-10-22T03:07:59;18.50;99.90
52295;DHT22;38243;53.212;6.574;2022-10-22T03:10:25;18.50;99.90
52295;DHT22;38243;53.212;6.574;2022-10-22T03:12:50;18.50;99.90
52295;DHT22;38243;53.212;6.574;2022-10-22T03:15:16;18.50;99.90
52295;DHT22;38243;53.212;6.574;2022-10-22T03:17:42;18.50;99.90
52295;DHT22;38243;53.212;6.574;2022-10-22T03:20:08;18.50;99.90
52295;DHT22;38243;53.212;6.574;2022-10-22T03:22:34;18.50;99.90
52295;DHT22;38243;53.212;6.574;2022-10-22T03:25:04;18.60;99.90
52295;DHT22;38243;53.212;6.574;2022-10-22T03:27:33;18.60;99.90
52295;DHT22;38243;53.212;6.574;2022-10-22T03:30:00;18.60;99.90
52295;DHT22;38243;53.212;6.574;2022-10-22T03:32:26;18.60;99.90
52295;DHT22;38243;53.212;6.574;2022-10-22T03:34:52;18.60;99.90
52295;DHT22;38243;53.212;6.574;2022-10-22T03:37:18;18.60;99.90
52295;DHT22;38243;53.212;6.574;2022-10-22T03:39:44;18.60;99.90
52295;DHT22;38243;53.212;6.574;2022-10-22T03:42:10;18.60;99.90
52295;DHT22;38243;53.212;6.574;2022-10-22T03:44:38;18.60;99.90
52295;DHT22;38243;53.212;6.574;2022-10-22T03:47:05;18.60;99.90
52295;DHT22;38243;53.212;6.574;2022-10-22T03:49:31;18.60;99.90
52295;DHT22;38243;53.212;6.574;2022-10-22T03:51:57;18.60;99.90
52295;DHT22;38243;53.212;6.574;2022-10-22T03:54:22;18.60;99.90
52295;DHT22;38243;53.212;6.574;2022-10-22T03:56:48;18.60;99.90
52295;DHT22;38243;53.212;6.574;2022-10-22T03:59:14;18.60;99.90
52295;DHT22;38243;53.212;6.574;2022-10-22T04:01:39;18.60;99.90
52295;DHT22;38243;53.212;6.574;2022-10-22T04:04:05;18.60;99.90
52295;DHT22;38243;53.212;6.574;2022-10-22T04:06:31;18.60;99.90
52295;DHT22;38243;53.212;6.574;2022-10-22T04:08:58;18.60;99.90
52295;DHT22;38243;53.212;6.574;2022-10-22T04:11:24;18.60;99.90
52295;DHT22;38243;53.212;6.574;2022-10-22T04:13:49;18.60;99.90
52295;DHT22;38243;53.212;6.574;2022-10-22T04:16:18;18.50;99.90
52295;DHT22;38243;53.212;6.574;2022-10-22T04:18:46;18.50;99.90
52295;DHT22;38243;53.212;6.574;2022-10-22T04:21:14;18.60;99.90
52295;DHT22;38243;53.212;6.574;2022-10-22T04:23:48;18.60;99.90
52295;DHT22;38243;53.212;6.574;2022-10-22T04:26:15;18.50;99.90
52295;DHT22;38243;53.212;6.574;2022-10-22T04:28:41;18.50;99.90
52295;DHT22;38243;53.212;6.574;2022-10-22T04:31:14;18.60;99.90
52295;DHT22;38243;53.212;6.574;2022-10-22T04:33:42;18.60;99.90
52295;DHT22;38243;53.212;6.574;2022-10-22T04:36:08;18.60;99.90
52295;DHT22;38243;53.212;6.574;2022-10-22T04:38:36;18.60;99.90
52295;DHT22;38243;53.212;6.574;2022-10-22T04:41:14;18.50;99.90
52295;DHT22;38243;53.212;6.574;2022-10-22T04:43:40;18.60;99.90
52295;DHT22;38243;53.212;6.574;2022-10-22T04:46:06;18.60;99.90
52295;DHT22;38243;53.212;6.574;2022-10-22T04:48:34;18.50;99.90
52295;DHT22;38243;53.212;6.574;2022-10-22T04:51:00;18.50;99.90
52295;DHT22;38243;53.212;6.574;2022-10-22T04:53:26;18.50;99.90
52295;DHT22;38243;53.212;6.574;2022-10-22T04:55:52;18.50;99.90
52295;DHT22;38243;53.212;6.574;2022-10-22T04:58:18;18.50;99.90
52295;DHT22;38243;53.212;6.574;2022-10-22T05:00:44;18.50;99.90
52295;DHT22;38243;53.212;6.574;2022-10-22T05:03:10;18.50;99.90
52295;DHT22;38243;53.212;6.574;2022-10-22T05:05:35;18.50;99.90
52295;DHT22;38243;53.212;6.574;2022-10-22T05:08:01;18.50;99.90
52295;DHT22;38243;53.212;6.574;2022-10-22T05:10:27;18.60;99.90
52295;DHT22;38243;53.212;6.574;2022-10-22T05:12:53;18.50;99.90
52295;DHT22;38243;53.212;6.574;2022-10-22T05:15:18;18.50;99.90
52295;DHT22;38243;53.212;6.574;2022-10-22T05:17:44;18.50;99.90
52295;DHT22;38243;53.212;6.574;2022-10-22T05:20:10;18.50;99.90
52295;DHT22;38243;53.212;6.574;2022-10-22T05:22:36;18.50;99.90
52295;DHT22;38243;53.212;6.574;2022-10-22T05:25:01;18.50;99.90
52295;DHT22;38243;53.212;6.574;2022-10-22T05:27:27;18.50;99.90
52295;DHT22;38243;53.212;6.574;2022-10-22T05:29:53;18.50;99.90
52295;DHT22;38243;53.212;6.574;2022-10-22T05:32:18;18.50;99.90
52295;DHT22;38243;53.212;6.574;2022-10-22T05:34:44;18.50;99.90
52295;DHT22;38243;53.212;6.574;2022-10-22T05:37:09;18.50;99.90
52295;DHT22;38243;53.212;6.574;2022-10-22T05:39:35;18.50;99.90
52295;DHT22;38243;53.212;6.574;2022-10-22T05:42:04;18.50;99.90
52295;DHT22;38243;53.212;6.574;2022-10-22T05:44:30;18.50;99.90
52295;DHT22;38243;53.212;6.574;2022-10-22T05:46:56;18.50;99.90
52295;DHT22;38243;53.212;6.574;2022-10-22T05:49:21;18.50;99.90
52295;DHT22;38243;53.212;6.574;2022-10-22T05:51:47;18.50;99.90
52295;DHT22;38243;53.212;6.574;2022-10-22T05:54:19;18.50;99.90
52295;DHT22;38243;53.212;6.574;2022-10-22T05:56:46;18.40;99.90
52295;DHT22;38243;53.212;6.574;2022-10-22T05:59:13;18.50;99.90
52295;DHT22;38243;53.212;6.574;2022-10-22T06:01:39;18.50;99.90
52295;DHT22;38243;53.212;6.574;2022-10-22T06:04:07;18.50;99.90
52295;DHT22;38243;53.212;6.574;2022-10-22T06:06:40;18.50;99.90
52295;DHT22;38243;53.212;6.574;2022-10-22T06:11:39;18.50;99.90
52295;DHT22;38243;53.212;6.574;2022-10-22T06:14:04;18.50;99.90
52295;DHT22;38243;53.212;6.574;2022-10-22T06:16:30;18.50;99.90
52295;DHT22;38243;53.212;6.574;2022-10-22T06:18:58;18.50;99.90
52295;DHT22;38243;53.212;6.574;2022-10-22T06:21:27;18.50;99.90
52295;DHT22;38243;53.212;6.574;2022-10-22T06:23:55;18.50;99.90
52295;DHT22;38243;53.212;6.574;2022-10-22T06:26:21;18.50;99.90
52295;DHT22;38243;53.212;6.574;2022-10-22T06:28:46;18.50;99.90
52295;DHT22;38243;53.212;6.574;2022-10-22T06:31:12;18.50;99.90
52295;DHT22;38243;53.212;6.574;2022-10-22T06:33:39;18.50;99.90
52295;DHT22;38243;53.212;6.574;2022-10-22T06:36:19;18.50;99.90
52295;DHT22;38243;53.212;6.574;2022-10-22T06:38:45;18.50;99.90
52295;DHT22;38243;53.212;6.574;2022-10-22T06:41:13;18.50;99.90
52295;DHT22;38243;53.212;6.574;2022-10-22T06:43:40;18.60;99.90
52295;DHT22;38243;53.212;6.574;2022-10-22T06:46:08;18.60;99.90
52295;DHT22;38243;53.212;6.574;2022-10-22T06:48:35;18.60;99.90
52295;DHT22;38243;53.212;6.574;2022-10-22T06:51:04;18.60;99.90
52295;DHT22;38243;53.212;6.574;2022-10-22T06:53:30;18.60;99.90
52295;DHT22;38243;53.212;6.574;2022-10-22T06:55:56;18.60;99.90
52295;DHT22;38243;53.212;6.574;2022-10-22T06:58:22;18.60;99.90
52295;DHT22;38243;53.212;6.574;2022-10-22T07:00:48;18.60;99.90
52295;DHT22;38243;53.212;6.574;2022-10-22T07:03:14;18.60;99.90
52295;DHT22;38243;53.212;6.574;2022-10-22T07:05:40;18.70;99.90
52295;DHT22;38243;53.212;6.574;2022-10-22T07:08:06;18.70;99.90
52295;DHT22;38243;53.212;6.574;2022-10-22T07:10:32;18.70;99.90
52295;DHT22;38243;53.212;6.574;2022-10-22T07:12:58;18.70;99.90
52295;DHT22;38243;53.212;6.574;2022-10-22T07:15:24;18.70;99.90
52295;DHT22;38243;53.212;6.574;2022-10-22T07:17:50;18.70;99.90
52295;DHT22;38243;53.212;6.574;2022-10-22T07:20:18;18.70;99.90
52295;DHT22;38243;53.212;6.574;2022-10-22T07:22:46;18.70;99.90
52295;DHT22;38243;53.212;6.574;2022-10-22T07:25:11;18.80;99.90
52295;DHT22;38243;53.212;6.574;2022-10-22T07:27:37;18.70;99.90
52295;DHT22;38243;53.212;6.574;2022-10-22T07:30:03;18.70;99.90
52295;DHT22;38243;53.212;6.574;2022-10-22T07:32:29;18.80;99.90
52295;DHT22;38243;53.212;6.574;2022-10-22T07:34:54;18.70;99.90
52295;DHT22;38243;53.212;6.574;2022-10-22T07:37:20;18.80;99.90
52295;DHT22;38243;53.212;6.574;2022-10-22T07:39:49;18.80;99.90
52295;DHT22;38243;53.212;6.574;2022-10-22T07:42:15;18.80;99.90
52295;DHT22;38243;53.212;6.574;2022-10-22T07:44:41;18.80;99.90
52295;DHT22;38243;53.212;6.574;2022-10-22T07:47:06;18.80;99.90
52295;DHT22;38243;53.212;6.574;2022-10-22T07:49:32;18.80;99.90
52295;DHT22;38243;53.212;6.574;2022-10-22T07:51:58;18.80;99.90
52295;DHT22;38243;53.212;6.574;2022-10-22T07:54:24;18.80;99.90
52295;DHT22;38243;53.212;6.574;2022-10-22T07:56:49;18.80;99.90
52295;DHT22;38243;53.212;6.574;2022-10-22T07:59:15;18.80;99.90
52295;DHT22;38243;53.212;6.574;2022-10-22T08:01:41;18.80;99.90
52295;DHT22;38243;53.212;6.574;2022-10-22T08:04:07;18.80;99.90
52295;DHT22;38243;53.212;6.574;2022-10-22T08:06:34;18.80;99.90
52295;DHT22;38243;53.212;6.574;2022-10-22T08:09:00;18.80;99.90
52295;DHT22;38243;53.212;6.574;2022-10-22T08:11:26;18.80;99.90
52295;DHT22;38243;53.212;6.574;2022-10-22T08:13:52;18.80;99.90
52295;DHT22;38243;53.212;6.574;2022-10-22T08:16:18;18.80;99.90
52295;DHT22;38243;53.212;6.574;2022-10-22T08:18:43;18.80;99.90
52295;DHT22;38243;53.212;6.574;2022-10-22T08:21:11;18.80;99.90
52295;DHT22;38243;53.212;6.574;2022-10-22T08:23:37;18.80;99.90
52295;DHT22;38243;53.212;6.574;2022-10-22T08:26:03;18.80;99.90
52295;DHT22;38243;53.212;6.574;2022-10-22T08:28:29;18.90;99.90
52295;DHT22;38243;53.212;6.574;2022-10-22T08:30:57;18.90;99.90
52295;DHT22;38243;53.212;6.574;2022-10-22T08:33:23;18.90;99.90
52295;DHT22;38243;53.212;6.574;2022-10-22T08:35:50;18.90;99.90
52295;DHT22;38243;53.212;6.574;2022-10-22T08:38:17;19.00;99.90
52295;DHT22;38243;53.212;6.574;2022-10-22T08:40:46;19.10;99.90
52295;DHT22;38243;53.212;6.574;2022-10-22T08:51:11;19.40;99.90
52295;DHT22;38243;53.212;6.574;2022-10-22T08:53:52;19.50;99.90
52295;DHT22;38243;53.212;6.574;2022-10-22T08:56:23;19.60;99.90
52295;DHT22;38243;53.212;6.574;2022-10-22T08:58:54;19.80;99.90
52295;DHT22;38243;53.212;6.574;2022-10-22T09:01:47;19.90;99.90
52295;DHT22;38243;53.212;6.574;2022-10-22T09:04:26;19.90;99.90
52295;DHT22;38243;53.212;6.574;2022-10-22T09:06:54;20.10;99.90
52295;DHT22;38243;53.212;6.574;2022-10-22T09:09:25;20.10;99.90
52295;DHT22;38243;53.212;6.574;2022-10-22T09:11:52;20.30;99.90
52295;DHT22;38243;53.212;6.574;2022-10-22T09:14:21;20.30;99.90
52295;DHT22;38243;53.212;6.574;2022-10-22T09:25:28;20.70;99.90
52295;DHT22;38243;53.212;6.574;2022-10-22T09:27:55;20.70;99.90
52295;DHT22;38243;53.212;6.574;2022-10-22T09:30:29;20.80;99.90
52295;DHT22;38243;53.212;6.574;2022-10-22T09:35:44;20.90;99.90
52295;DHT22;38243;53.212;6.574;2022-10-22T09:38:13;21.00;99.90
52295;DHT22;38243;53.212;6.574;2022-10-22T09:40:53;21.10;99.90
52295;DHT22;38243;53.212;6.574;2022-10-22T09:43:19;21.10;99.90
52295;DHT22;38243;53.212;6.574;2022-10-22T09:45:46;21.10;99.90
52295;DHT22;38243;53.212;6.574;2022-10-22T09:48:21;21.10;99.90
52295;DHT22;38243;53.212;6.574;2022-10-22T09:51:21;21.10;99.90
52295;DHT22;38243;53.212;6.574;2022-10-22T09:54:21;21.00;99.90
52295;DHT22;38243;53.212;6.574;2022-10-22T09:56:55;20.90;99.90
52295;DHT22;38243;53.212;6.574;2022-10-22T09:59:33;20.80;99.90
52295;DHT22;38243;53.212;6.574;2022-10-22T10:04:41;20.70;99.90
52295;DHT22;38243;53.212;6.574;2022-10-22T10:07:22;20.60;99.90
52295;DHT22;38243;53.212;6.574;2022-10-22T10:09:48;20.60;99.90
52295;DHT22;38243;53.212;6.574;2022-10-22T10:17:38;20.50;99.90
52295;DHT22;38243;53.212;6.574;2022-10-22T10:20:37;20.40;99.90
52295;DHT22;38243;53.212;6.574;2022-10-22T10:26:03;20.40;99.90
52295;DHT22;38243;53.212;6.574;2022-10-22T10:34:14;20.20;99.90
52295;DHT22;38243;53.212;6.574;2022-10-22T10:39:49;20.20;99.90
52295;DHT22;38243;53.212;6.574;2022-10-22T10:42:26;20.20;99.90
52295;DHT22;38243;53.212;6.574;2022-10-22T10:50:16;20.10;99.90
52295;DHT22;38243;53.212;6.574;2022-10-22T10:53:02;20.10;99.90
52295;DHT22;38243;53.212;6.574;2022-10-22T10:56:10;20.10;99.90
52295;DHT22;38243;53.212;6.574;2022-10-22T11:01:47;20.00;99.90
52295;DHT22;38243;53.212;6.574;2022-10-22T11:04:46;20.00;99.90
52295;DHT22;38243;53.212;6.574;2022-10-22T11:07:24;19.90;99.90
52295;DHT22;38243;53.212;6.574;2022-10-22T11:10:00;19.90;99.90
52295;DHT22;38243;53.212;6.574;2022-10-22T11:12:32;19.90;99.90
52295;DHT22;38243;53.212;6.574;2022-10-22T11:17:37;19.80;99.90
52295;DHT22;38243;53.212;6.574;2022-10-22T11:20:29;19.80;99.90
52295;DHT22;38243;53.212;6.574;2022-10-22T11:23:10;19.80;99.90
52295;DHT22;38243;53.212;6.574;2022-10-22T11:25:45;19.80;99.90
52295;DHT22;38243;53.212;6.574;2022-10-22T11:28:27;19.80;99.90
52295;DHT22;38243;53.212;6.574;2022-10-22T11:31:02;19.80;99.90
52295;DHT22;38243;53.212;6.574;2022-10-22T11:36:09;19.90;99.90
52295;DHT22;38243;53.212;6.574;2022-10-22T11:38:35;20.10;99.90
52295;DHT22;38243;53.212;6.574;2022-10-22T11:41:06;20.20;99.90
52295;DHT22;38243;53.212;6.574;2022-10-22T11:48:42;20.40;99.90
52295;DHT22;38243;53.212;6.574;2022-10-22T11:51:36;20.40;99.90
52295;DHT22;38243;53.212;6.574;2022-10-22T11:59:59;20.30;99.90
52295;DHT22;38243;53.212;6.574;2022-10-22T12:05:18;20.20;99.90
52295;DHT22;38243;53.212;6.574;2022-10-22T12:07:55;20.20;99.90
52295;DHT22;38243;53.212;6.574;2022-10-22T12:10:26;20.10;99.90
52295;DHT22;38243;53.212;6.574;2022-10-22T12:12:56;20.10;99.90
52295;DHT22;38243;53.212;6.574;2022-10-22T12:15:25;20.10;99.90
52295;DHT22;38243;53.212;6.574;2022-10-22T12:17:59;20.10;99.90
52295;DHT22;38243;53.212;6.574;2022-10-22T12:20:27;20.10;99.90
52295;DHT22;38243;53.212;6.574;2022-10-22T12:22:54;20.10;99.90
52295;DHT22;38243;53.212;6.574;2022-10-22T12:25:25;20.20;99.90
52295;DHT22;38243;53.212;6.574;2022-10-22T12:27:56;20.20;99.90
52295;DHT22;38243;53.212;6.574;2022-10-22T12:30:30;20.20;99.90
52295;DHT22;38243;53.212;6.574;2022-10-22T12:33:01;20.20;99.90
52295;DHT22;38243;53.212;6.574;2022-10-22T12:35:29;20.20;99.90
52295;DHT22;38243;53.212;6.574;2022-10-22T12:37:59;20.20;99.90
52295;DHT22;38243;53.212;6.574;2022-10-22T12:40:28;20.10;99.90
52295;DHT22;38243;53.212;6.574;2022-10-22T12:43:00;20.10;99.90
52295;DHT22;38243;53.212;6.574;2022-10-22T12:45:28;20.10;99.90
52295;DHT22;38243;53.212;6.574;2022-10-22T12:47:57;20.00;99.90
52295;DHT22;38243;53.212;6.574;2022-10-22T12:50:31;20.00;99.90
52295;DHT22;38243;53.212;6.574;2022-10-22T12:52:57;20.00;99.90
52295;DHT22;38243;53.212;6.574;2022-10-22T12:55:24;19.90;99.90
52295;DHT22;38243;53.212;6.574;2022-10-22T12:57:51;19.90;99.90
52295;DHT22;38243;53.212;6.574;2022-10-22T13:00:22;19.90;99.90
52295;DHT22;38243;53.212;6.574;2022-10-22T13:02:49;19.80;99.90
52295;DHT22;38243;53.212;6.574;2022-10-22T13:05:19;19.90;99.90
52295;DHT22;38243;53.212;6.574;2022-10-22T13:08:00;19.90;99.90
52295;DHT22;38243;53.212;6.574;2022-10-22T13:10:32;19.80;99.90
52295;DHT22;38243;53.212;6.574;2022-10-22T13:12:59;20.00;99.90
52295;DHT22;38243;53.212;6.574;2022-10-22T13:18:06;20.10;99.90
52295;DHT22;38243;53.212;6.574;2022-10-22T13:20:55;20.20;99.90
52295;DHT22;38243;53.212;6.574;2022-10-22T13:23:24;20.40;99.90
52295;DHT22;38243;53.212;6.574;2022-10-22T13:28:35;20.60;99.90
52295;DHT22;38243;53.212;6.574;2022-10-22T13:31:13;20.70;99.90
52295;DHT22;38243;53.212;6.574;2022-10-22T13:33:42;20.70;99.90
52295;DHT22;38243;53.212;6.574;2022-10-22T13:36:13;20.70;99.90
52295;DHT22;38243;53.212;6.574;2022-10-22T13:38:39;20.70;99.90
52295;DHT22;38243;53.212;6.574;2022-10-22T13:41:21;20.70;99.90
52295;DHT22;38243;53.212;6.574;2022-10-22T13:43:48;20.80;99.90
52295;DHT22;38243;53.212;6.574;2022-10-22T13:46:14;20.70;99.90
52295;DHT22;38243;53.212;6.574;2022-10-22T13:48:40;20.70;99.90
52295;DHT22;38243;53.212;6.574;2022-10-22T13:51:17;20.60;99.90
52295;DHT22;38243;53.212;6.574;2022-10-22T13:53:44;20.60;99.90
52295;DHT22;38243;53.212;6.574;2022-10-22T13:56:16;20.60;99.90
52295;DHT22;38243;53.212;6.574;2022-10-22T13:58:43;20.50;99.90
52295;DHT22;38243;53.212;6.574;2022-10-22T14:01:25;20.50;99.90
52295;DHT22;38243;53.212;6.574;2022-10-22T14:03:53;20.50;99.90
52295;DHT22;38243;53.212;6.574;2022-10-22T14:06:21;20.50;99.90
52295;DHT22;38243;53.212;6.574;2022-10-22T14:08:49;20.40;99.90
52295;DHT22;38243;53.212;6.574;2022-10-22T14:11:18;20.50;99.90
52295;DHT22;38243;53.212;6.574;2022-10-22T14:13:44;20.40;99.90
52295;DHT22;38243;53.212;6.574;2022-10-22T14:16:20;20.40;99.90
52295;DHT22;38243;53.212;6.574;2022-10-22T14:18:48;20.40;99.90
52295;DHT22;38243;53.212;6.574;2022-10-22T14:21:15;20.40;99.90
52295;DHT22;38243;53.212;6.574;2022-10-22T14:23:43;20.50;99.90
52295;DHT22;38243;53.212;6.574;2022-10-22T14:26:24;20.50;99.90
52295;DHT22;38243;53.212;6.574;2022-10-22T14:28:51;20.60;99.90
52295;DHT22;38243;53.212;6.574;2022-10-22T14:31:17;20.60;99.90
52295;DHT22;38243;53.212;6.574;2022-10-22T14:33:43;20.70;99.90
52295;DHT22;38243;53.212;6.574;2022-10-22T14:36:12;20.60;99.90
52295;DHT22;38243;53.212;6.574;2022-10-22T14:38:38;20.70;99.90
52295;DHT22;38243;53.212;6.574;2022-10-22T14:41:15;20.70;99.90
52295;DHT22;38243;53.212;6.574;2022-10-22T14:43:42;20.70;99.90
52295;DHT22;38243;53.212;6.574;2022-10-22T14:46:10;20.70;99.90
52295;DHT22;38243;53.212;6.574;2022-10-22T14:48:37;20.70;99.90
52295;DHT22;38243;53.212;6.574;2022-10-22T14:51:02;20.70;99.90
52295;DHT22;38243;53.212;6.574;2022-10-22T14:53:28;20.70;99.90
52295;DHT22;38243;53.212;6.574;2022-10-22T14:55:55;20.60;99.90
52295;DHT22;38243;53.212;6.574;2022-10-22T14:58:24;20.60;99.90
52295;DHT22;38243;53.212;6.574;2022-10-22T15:00:51;20.60;99.90
52295;DHT22;38243;53.212;6.574;2022-10-22T15:03:16;20.60;99.90
52295;DHT22;38243;53.212;6.574;2022-10-22T15:05:43;20.60;99.90
52295;DHT22;38243;53.212;6.574;2022-10-22T15:08:10;20.60;99.90
52295;DHT22;38243;53.212;6.574;2022-10-22T15:10:36;20.50;99.90
52295;DHT22;38243;53.212;6.574;2022-10-22T15:13:02;20.50;99.90
52295;DHT22;38243;53.212;6.574;2022-10-22T15:15:27;20.50;99.90
52295;DHT22;38243;53.212;6.574;2022-10-22T15:17:53;20.50;99.90
52295;DHT22;38243;53.212;6.574;2022-10-22T15:20:19;20.50;99.90
52295;DHT22;38243;53.212;6.574;2022-10-22T15:22:45;20.40;99.90
52295;DHT22;38243;53.212;6.574;2022-10-22T15:25:12;20.40;99.90
52295;DHT22;38243;53.212;6.574;2022-10-22T15:27:37;20.40;99.90
52295;DHT22;38243;53.212;6.574;2022-10-22T15:30:04;20.40;99.90
52295;DHT22;38243;53.212;6.574;2022-10-22T15:32:30;20.30;99.90
52295;DHT22;38243;53.212;6.574;2022-10-22T15:34:58;20.30;99.90
52295;DHT22;38243;53.212;6.574;2022-10-22T15:37:24;20.30;99.90
52295;DHT22;38243;53.212;6.574;2022-10-22T15:39:49;20.20;99.90
52295;DHT22;38243;53.212;6.574;2022-10-22T15:42:15;20.20;99.90
52295;DHT22;38243;53.212;6.574;2022-10-22T15:44:41;20.20;99.90
52295;DHT22;38243;53.212;6.574;2022-10-22T15:47:07;20.10;99.90
52295;DHT22;38243;53.212;6.574;2022-10-22T15:49:35;20.10;99.90
52295;DHT22;38243;53.212;6.574;2022-10-22T15:52:01;20.10;99.90
52295;DHT22;38243;53.212;6.574;2022-10-22T15:54:28;20.00;99.90
52295;DHT22;38243;53.212;6.574;2022-10-22T15:56:55;20.00;99.90
52295;DHT22;38243;53.212;6.574;2022-10-22T15:59:21;20.00;99.90
52295;DHT22;38243;53.212;6.574;2022-10-22T16:01:47;19.90;99.90
52295;DHT22;38243;53.212;6.574;2022-10-22T16:04:13;19.90;99.90
52295;DHT22;38243;53.212;6.574;2022-10-22T16:06:43;19.90;99.90
52295;DHT22;38243;53.212;6.574;2022-10-22T16:09:28;19.90;99.90
52295;DHT22;38243;53.212;6.574;2022-10-22T16:11:54;19.80;99.90
52295;DHT22;38243;53.212;6.574;2022-10-22T16:14:21;19.80;99.90
52295;DHT22;38243;53.212;6.574;2022-10-22T16:16:50;19.80;99.90
52295;DHT22;38243;53.212;6.574;2022-10-22T16:19:18;19.80;99.90
52295;DHT22;38243;53.212;6.574;2022-10-22T16:21:45;19.70;99.90
52295;DHT22;38243;53.212;6.574;2022-10-22T16:24:14;19.70;99.90
52295;DHT22;38243;53.212;6.574;2022-10-22T16:26:40;19.70;99.90
52295;DHT22;38243;53.212;6.574;2022-10-22T16:29:05;19.60;99.90
52295;DHT22;38243;53.212;6.574;2022-10-22T16:31:33;19.60;99.90
52295;DHT22;38243;53.212;6.574;2022-10-22T16:33:58;19.60;99.90
52295;DHT22;38243;53.212;6.574;2022-10-22T16:36:24;19.60;99.90
52295;DHT22;38243;53.212;6.574;2022-10-22T16:38:50;19.60;99.90
52295;DHT22;38243;53.212;6.574;2022-10-22T16:41:18;19.50;99.90
52295;DHT22;38243;53.212;6.574;2022-10-22T16:43:46;19.50;99.90
52295;DHT22;38243;53.212;6.574;2022-10-22T16:46:17;19.50;99.90
52295;DHT22;38243;53.212;6.574;2022-10-22T16:48:52;19.50;99.90
52295;DHT22;38243;53.212;6.574;2022-10-22T16:51:21;19.40;99.90
52295;DHT22;38243;53.212;6.574;2022-10-22T16:53:47;19.40;99.90
52295;DHT22;38243;53.212;6.574;2022-10-22T16:56:14;19.40;99.90
52295;DHT22;38243;53.212;6.574;2022-10-22T16:58:46;19.40;99.90
52295;DHT22;38243;53.212;6.574;2022-10-22T17:01:12;19.40;99.90
52295;DHT22;38243;53.212;6.574;2022-10-22T17:03:38;19.40;99.90
52295;DHT22;38243;53.212;6.574;2022-10-22T17:06:04;19.30;99.90
52295;DHT22;38243;53.212;6.574;2022-10-22T17:08:32;19.40;99.90
52295;DHT22;38243;53.212;6.574;2022-10-22T17:11:07;19.30;99.90
52295;DHT22;38243;53.212;6.574;2022-10-22T17:13:34;19.30;99.90
52295;DHT22;38243;53.212;6.574;2022-10-22T17:16:04;19.30;99.90
52295;DHT22;38243;53.212;6.574;2022-10-22T17:18:31;19.30;99.90
52295;DHT22;38243;53.212;6.574;2022-10-22T17:20:57;19.30;99.90
52295;DHT22;38243;53.212;6.574;2022-10-22T17:23:26;19.30;99.90